Pagrindinis puslapis
METAR-TAF:

METAR-TAF

Oro uostai :

Krasnodaras, Rusija

platuma: 45-02N, ilguma: 039-09E, Aukštis: 33 m

Dabartinis oras

Ataskaita buvo paskelbta 33 minutes, ne 04:30 UTC
Vėjas 4 kt iš Rytų/Pietryčių
Temperatūra -1°C
Drėgmė 93%
Slėgis 1024 hPa
Matomumas 10 km arba daugiau
nėra debesų žemiau 1500 m ir nėra kamuolinių lietaus debesų

METAR: URKK 280430Z 11002MPS CAVOK M01/M02 Q1024 R23L/CLRD70 TEMPO 0500 FZFG SCT003 RMK QFE765

Laikas: 09:03 (05:03 UTC)

Prognozė

Ataskaita buvo paskelbta 3 valandos ir 10 minutes, ne 01:53 UTC
Prognozė galioja nuo 28 metu 03 UTC su 29 metu 03 UTC
Vėjas 6 kt iš Rytų su gūsio iki 16 kt
Matomumas 10 km arba daugiau
Išsisklaidę debesys ne aukštis 3000 ft
Laikinai
nuo 28 metu 03 UTC su 28 metu 06 UTC
Matomumas: 0300 m
Su prošvaistėmis ne aukštis 200 ft
įšaldymas rūko
Laikinai
nuo 28 metu 06 UTC su 28 metu 09 UTC
Išsisklaidę debesys ne aukštis 500 ft

TAF: URKK 280153Z 2803/2903 10003G08MPS 9999 SCT030 TEMPO 2803/2806 0300 FZFG BKN002 TEMPO 2806/2809 SCT005

Orai ataskaitas ir orų prognozės (METAR, TAF).

turimą stotys yra geltonos ir raudonos taškus žemėlapyje.

Perkelti pele per norėdami pamatyti stoties vardą.

Tada spustelėkite, norėdami matyti oro stebėjimo ir prognozės.

Norėdami pakeisti žemėlapį: spustelėkite ant žalios mygtukų su juodo kryžiaus žemyn,; žalią mygtuką su brūkšneliu, jei norite nutolinti; arba žalių rodyklių gretimoms žemėlapius.


METAR-TAF: